Time;durP1;ratioP1;P1;durP2;ratioP2;P2;SDS_P1;SDS_P2;PMS_P1;PMS_P2;Temp;Humidity;BMP_temperature;BMP_pressure;BME280_temperature;BME280_humidity;BME280_pressure;Samples;Min_cycle;Max_cycle;Signal;HPM_P1;HPM_P2
2021/01/24 00:00:24;;;;;;;20.25;13.10;;;;;;;4.24;100.00;100847.02;1795897;79;21141;-88
2021/01/24 00:02:56;;;;;;;19.02;12.65;;;;;;;4.24;100.00;100841.02;1796036;79;21177;-88
2021/01/24 00:05:23;;;;;;;;;;;;;;;4.22;100.00;100838.52;1798696;79;21142;-88
2021/01/24 00:07:51;;;;;;;16.77;11.93;;;;;;;4.20;100.00;100838.20;1795891;79;21309;-88
2021/01/24 00:10:19;;;;;;;19.82;12.10;;;;;;;4.19;100.00;100844.27;1795851;79;21558;-88
2021/01/24 00:12:48;;;;;;;16.65;11.95;;;;;;;4.17;100.00;100838.33;1795871;79;21101;-88
2021/01/24 00:15:17;;;;;;;18.32;12.78;;;;;;;4.14;100.00;100834.59;1795737;79;21628;-88
2021/01/24 00:17:45;;;;;;;21.82;13.18;;;;;;;4.14;100.00;100834.59;1796116;79;21570;-88
2021/01/24 00:20:13;;;;;;;16.37;12.20;;;;;;;4.15;100.00;100829.82;1795963;79;21451;-88
2021/01/24 00:22:40;;;;;;;19.23;12.03;;;;;;;4.13;100.00;100824.74;1795842;79;21117;-87
2021/01/24 00:25:11;;;;;;;17.90;11.50;;;;;;;4.12;100.00;100826.94;1795923;79;21122;-88
2021/01/24 00:27:39;;;;;;;15.32;11.55;;;;;;;4.09;100.00;100827.06;1796034;79;21193;-87
2021/01/24 00:30:16;;;;;;;19.37;12.82;;;;;;;4.06;100.00;100819.48;1795958;79;21130;-87
2021/01/24 00:32:43;;;;;;;18.98;12.35;;;;;;;4.00;100.00;100814.61;1795978;79;21530;-88
2021/01/24 00:35:17;;;;;;;18.87;12.40;;;;;;;4.00;100.00;100814.61;1775991;79;21117;-88
2021/01/24 00:37:45;;;;;;;18.00;11.85;;;;;;;3.99;100.00;100818.91;1793403;79;21149;-87
2021/01/24 00:40:14;;;;;;;16.67;11.50;;;;;;;3.97;100.00;100808.29;1795937;79;21161;-87
2021/01/24 00:42:42;;;;;;;18.23;11.78;;;;;;;3.92;100.00;100800.33;1795832;79;21137;-87
2021/01/24 00:45:11;;;;;;;19.77;12.45;;;;;;;3.90;100.00;100805.14;1795848;79;21332;-88
2021/01/24 00:47:42;;;;;;;15.43;11.40;;;;;;;3.86;100.00;100806.19;1795958;79;21161;-88
2021/01/24 00:50:11;;;;;;;;;;;;;;;3.82;100.00;100809.79;1798665;79;21177;-88
2021/01/24 00:52:38;;;;;;;15.85;11.12;;;;;;;3.75;100.00;100808.77;1795851;79;20739;-88
2021/01/24 00:55:08;;;;;;;16.20;11.60;;;;;;;3.71;100.00;100807.69;1795885;79;21137;-88
2021/01/24 00:57:37;;;;;;;15.32;10.32;;;;;;;3.65;100.00;100805.38;1795917;79;21585;-88
2021/01/24 01:00:07;;;;;;;13.72;10.10;;;;;;;3.59;100.00;100806.47;1795788;79;21236;-88
2021/01/24 01:02:37;;;;;;;19.52;11.70;;;;;;;3.54;100.00;100809.70;1795812;79;21089;-88
2021/01/24 01:05:07;;;;;;;14.73;10.18;;;;;;;3.50;100.00;100808.15;1795966;79;21110;-88
2021/01/24 01:07:36;;;;;;;14.20;10.23;;;;;;;3.42;100.00;100805.45;1795827;79;21101;-88
2021/01/24 01:10:06;;;;;;;14.15;10.40;;;;;;;3.33;100.00;100805.83;1798187;78;22017;-88
2021/01/24 01:12:35;;;;;;;16.40;10.32;;;;;;;3.27;100.00;100802.23;1805304;78;21164;-88
2021/01/24 01:15:05;;;;;;;15.72;10.48;;;;;;;3.21;100.00;100804.60;1799618;78;21125;-88
2021/01/24 01:17:33;;;;;;;14.63;10.83;;;;;;;3.16;100.00;100803.97;1799662;78;21522;-88
2021/01/24 01:20:04;;;;;;;14.00;10.32;;;;;;;3.09;100.00;100805.95;1811370;78;21133;-87
2021/01/24 01:22:32;;;;;;;17.40;11.85;;;;;;;3.03;100.00;100802.80;1803886;78;21572;-87
2021/01/24 01:25:00;;;;;;;16.77;11.50;;;;;;;2.94;100.00;100804.84;1795276;79;21248;-88
2021/01/24 01:27:28;;;;;;;19.75;11.63;;;;;;;2.86;100.00;100807.32;1795895;79;21094;-88
2021/01/24 01:29:56;;;;;;;15.05;10.80;;;;;;;2.78;100.00;100804.61;1795765;79;21078;-88
2021/01/24 01:32:24;;;;;;;17.73;11.48;;;;;;;2.73;100.00;100806.53;1795831;79;21074;-88
2021/01/24 01:34:53;;;;;;;18.23;11.90;;;;;;;2.70;100.00;100805.36;1795926;79;22157;-88
2021/01/24 01:37:27;;;;;;;18.05;11.65;;;;;;;2.68;100.00;100805.89;1795725;79;21141;-88
2021/01/24 01:39:56;;;;;;;17.17;12.15;;;;;;;2.65;100.00;100813.25;1795937;79;21117;-88
2021/01/24 01:42:24;;;;;;;18.35;12.43;;;;;;;2.61;100.00;100811.70;1795833;79;21102;-88
2021/01/24 01:44:53;;;;;;;18.15;12.28;;;;;;;2.60;100.00;100811.31;1795745;79;21133;-88
2021/01/24 01:47:25;;;;;;;15.65;11.38;;;;;;;2.59;100.00;100816.06;1795862;79;22089;-88
2021/01/24 01:49:58;;;;;;;17.05;11.78;;;;;;;2.58;100.00;100813.09;1795943;79;21110;-88
2021/01/24 01:52:28;;;;;;;19.05;11.90;;;;;;;2.57;100.00;100813.16;1795912;79;21169;-88
2021/01/24 01:54:58;;;;;;;20.12;12.50;;;;;;;2.55;100.00;100813.66;1795707;79;21102;-88
2021/01/24 01:57:27;;;;;;;19.90;12.18;;;;;;;2.51;100.00;100812.95;1795790;79;21114;-88
2021/01/24 01:59:56;;;;;;;20.37;12.78;;;;;;;2.48;100.00;100819.05;1795837;79;21608;-88
2021/01/24 02:02:55;;;;;;;22.32;13.35;;;;;;;2.46;100.00;100816.16;1795915;79;21126;-88
2021/01/24 02:06:03;;;;;;;19.57;12.82;;;;;;;2.47;100.00;100815.27;1792419;79;21268;-88
2021/01/24 02:08:48;;;;;;;17.82;12.98;;;;;;;2.49;100.00;100814.73;1790512;79;21102;-88
2021/01/24 02:11:27;;;;;;;22.10;12.50;;;;;;;2.52;100.00;100816.73;1795856;79;21463;-88
2021/01/24 02:14:34;;;;;;;20.75;13.60;;;;;;;2.56;100.00;100811.48;1790922;79;22558;-88
2021/01/24 02:17:06;;;;;;;18.48;12.73;;;;;;;2.58;100.00;100816.13;1795651;79;21608;-88
2021/01/24 02:19:56;;;;;;;20.50;12.58;;;;;;;2.62;100.00;100815.95;1795835;79;21137;-88
2021/01/24 02:22:36;;;;;;;18.48;12.15;;;;;;;2.64;100.00;100815.89;1795674;79;21050;-88
2021/01/24 02:25:36;;;;;;;19.30;12.68;;;;;;;2.69;100.00;100813.97;1795975;79;21138;-88
2021/01/24 02:28:40;;;;;;;19.85;13.22;;;;;;;2.73;100.00;100811.67;1795770;79;21425;-88
2021/01/24 02:31:14;;;;;;;20.52;13.13;;;;;;;2.76;100.00;100812.00;1727894;81;21129;-88
2021/01/24 02:33:48;;;;;;;19.65;11.75;;;;;;;2.78;100.00;100808.92;1728484;81;21227;-88
2021/01/24 02:36:19;;;;;;;18.00;12.05;;;;;;;2.79;100.00;100806.28;1728670;81;21136;-88
2021/01/24 02:38:48;;;;;;;16.93;11.53;;;;;;;2.81;100.00;100809.64;1728840;81;21116;-88
2021/01/24 02:41:17;;;;;;;16.60;11.97;;;;;;;2.82;100.00;100814.32;1728604;83;21365;-88
2021/01/24 02:43:47;;;;;;;18.60;12.68;;;;;;;2.83;100.00;100807.00;1728566;82;21624;-88
2021/01/24 02:46:17;;;;;;;17.92;11.48;;;;;;;2.85;100.00;100803.92;1728715;83;21128;-88
2021/01/24 02:48:52;;;;;;;18.92;12.93;;;;;;;2.87;100.00;100801.28;1728685;81;21643;-88
2021/01/24 02:51:21;;;;;;;17.55;12.10;;;;;;;2.90;100.00;100805.03;1728621;83;21188;-88
2021/01/24 02:53:52;;;;;;;17.35;12.15;;;;;;;2.96;100.00;100806.06;1728702;83;21655;-88
2021/01/24 02:56:21;;;;;;;17.87;11.43;;;;;;;3.02;100.00;100806.27;1737189;80;21185;-88
2021/01/24 02:58:51;;;;;;;16.40;11.38;;;;;;;3.08;100.00;100803.01;1732480;82;21138;-88
2021/01/24 03:01:22;;;;;;;16.93;11.03;;;;;;;3.19;100.00;100809.00;1775670;79;21193;-88
2021/01/24 03:03:52;;;;;;;15.65;11.57;;;;;;;3.24;100.00;100808.34;1775445;80;21966;-88
2021/01/24 03:06:21;;;;;;;18.42;11.63;;;;;;;3.29;100.00;100803.84;1775371;80;21412;-88
2021/01/24 03:08:52;;;;;;;15.15;11.05;;;;;;;3.37;100.00;100808.67;1764823;80;21158;-88
2021/01/24 03:11:23;;;;;;;13.90;10.72;;;;;;;3.45;100.00;100804.05;1775491;80;21129;-88
2021/01/24 03:14:05;;;;;;;14.10;9.93;;;;;;;3.54;100.00;100798.12;1774938;80;21586;-88
2021/01/24 03:16:35;;;;;;;15.38;10.82;;;;;;;3.60;100.00;100797.84;1775668;80;21114;-88
2021/01/24 03:19:05;;;;;;;15.63;10.70;;;;;;;3.67;100.00;100796.68;1775377;80;21569;-89
2021/01/24 03:21:36;;;;;;;13.53;10.05;;;;;;;3.74;100.00;100798.55;1775351;80;21161;-88
2021/01/24 03:24:07;;;;;;;14.85;10.50;;;;;;;3.81;100.00;100793.94;1775485;80;21102;-88
2021/01/24 03:26:35;;;;;;;16.77;10.25;;;;;;;3.88;100.00;100795.38;1775588;80;21459;-88
2021/01/24 03:29:05;;;;;;;14.10;9.95;;;;;;;3.92;100.00;100795.17;1775365;80;21577;-89
2021/01/24 03:31:34;;;;;;;14.33;9.03;;;;;;;3.98;100.00;100801.77;1775505;80;22099;-88
2021/01/24 03:34:10;;;;;;;15.68;11.15;;;;;;;4.01;100.00;100804.22;1775416;80;21566;-88
2021/01/24 03:36:38;;;;;;;15.95;10.70;;;;;;;4.04;100.00;100802.81;1774414;80;21125;-88
2021/01/24 03:39:13;;;;;;;17.80;10.32;;;;;;;4.09;100.00;100806.44;1775440;80;21170;-88
2021/01/24 03:41:43;;;;;;;14.00;9.98;;;;;;;4.12;100.00;100808.89;1775396;80;21166;-88
2021/01/24 03:44:13;;;;;;;12.95;10.03;;;;;;;4.15;100.00;100811.78;1775734;80;22297;-88
2021/01/24 03:46:43;;;;;;;13.05;9.33;;;;;;;4.18;100.00;100811.65;1775441;79;28222;-88
2021/01/24 03:49:12;;;;;;;13.65;9.38;;;;;;;4.20;100.00;100811.96;1788125;78;21133;-89
2021/01/24 03:51:45;;;;;;;13.68;9.58;;;;;;;4.21;100.00;100809.77;1789907;79;21545;-88
2021/01/24 03:54:13;;;;;;;14.15;10.10;;;;;;;4.24;100.00;100807.50;1796028;79;21142;-88
2021/01/24 03:56:47;;;;;;;12.58;9.33;;;;;;;4.26;100.00;100803.12;1796158;79;21191;-88
2021/01/24 03:59:22;;;;;;;16.07;10.25;;;;;;;4.28;100.00;100803.89;1795972;79;21082;-88
2021/01/24 04:01:56;;;;;;;12.65;9.35;;;;;;;4.30;100.00;100806.39;1774372;79;21157;-88
2021/01/24 04:04:24;;;;;;;15.98;10.38;;;;;;;4.30;100.00;100799.48;1764627;80;21173;-88
2021/01/24 04:06:54;;;;;;;13.55;10.03;;;;;;;4.30;100.00;100803.81;1764562;81;21193;-88
2021/01/24 04:09:25;;;;;;;13.88;9.23;;;;;;;4.24;100.00;100798.48;1764578;80;21186;-88
2021/01/24 04:11:53;;;;;;;12.95;8.83;;;;;;;4.24;100.00;100798.48;1765366;79;21169;-89
2021/01/24 04:14:21;;;;;;;12.47;9.85;;;;;;;4.23;100.00;100807.97;1796075;79;21142;-88
2021/01/24 04:17:21;;;;;;;14.38;9.50;;;;;;;4.20;100.00;100803.41;1795961;79;21517;-89
2021/01/24 04:19:50;;;;;;;11.28;8.70;;;;;;;4.20;100.00;100803.41;1796023;79;21181;-89
2021/01/24 04:22:17;;;;;;;11.53;9.15;;;;;;;4.20;100.00;100805.98;1795972;79;21358;-89
2021/01/24 04:24:45;;;;;;;15.43;10.40;;;;;;;4.17;100.00;100802.24;1795915;79;21169;-89
2021/01/24 04:27:13;;;;;;;16.52;10.25;;;;;;;4.16;100.00;100807.01;1795952;79;21153;-89
2021/01/24 04:29:42;;;;;;;11.18;9.38;;;;;;;4.15;100.00;100803.61;1795986;79;21209;-89
2021/01/24 04:32:10;;;;;;;17.62;10.55;;;;;;;4.15;100.00;100800.18;1796033;79;21540;-89
2021/01/24 04:34:38;;;;;;;13.48;10.20;;;;;;;4.14;100.00;100802.37;1795933;79;21319;-89
2021/01/24 04:37:06;;;;;;;14.35;9.78;;;;;;;4.13;100.00;100803.30;1795843;79;21172;-88
2021/01/24 04:39:34;;;;;;;15.83;10.63;;;;;;;4.11;100.00;100798.19;1796001;79;21574;-88
2021/01/24 04:42:04;;;;;;;13.90;10.05;;;;;;;4.10;100.00;100803.81;1795898;79;21172;-89
2021/01/24 04:44:34;;;;;;;15.45;10.40;;;;;;;4.09;100.00;100795.70;1796065;79;21133;-88
2021/01/24 04:47:02;;;;;;;15.48;10.13;;;;;;;4.07;100.00;100801.36;1795887;79;21344;-88
2021/01/24 04:49:33;;;;;;;11.15;8.93;;;;;;;4.01;100.00;100793.91;1795921;79;21102;-88
2021/01/24 04:52:35;;;;;;;14.23;9.10;;;;;;;4.01;100.00;100793.91;1796127;79;21188;-89
2021/01/24 04:55:09;;;;;;;11.93;8.93;;;;;;;4.00;100.00;100797.39;1795878;79;22205;-88
2021/01/24 04:57:37;;;;;;;17.00;10.05;;;;;;;3.99;100.00;100803.91;1776011;79;21593;-88
2021/01/24 05:00:07;;;;;;;16.30;9.80;;;;;;;3.95;100.00;100798.06;1795952;79;21196;-88
2021/01/24 05:02:36;;;;;;;16.67;10.48;;;;;;;3.97;100.00;100795.41;1792664;79;21130;-89
2021/01/24 05:05:05;;;;;;;14.28;10.15;;;;;;;3.98;100.00;100803.52;1795894;79;21154;-89
2021/01/24 05:07:33;;;;;;;14.15;9.78;;;;;;;3.97;100.00;100805.25;1796043;79;21138;-89
2021/01/24 05:10:06;;;;;;;13.43;8.88;;;;;;;3.96;100.00;100807.47;1796031;79;21205;-88
2021/01/24 05:12:34;;;;;;;9.73;8.15;;;;;;;3.94;100.00;100811.38;1793807;78;21573;-88
2021/01/24 05:15:07;;;;;;;12.40;8.65;;;;;;;3.94;100.00;100812.66;1764699;79;21147;-89
2021/01/24 05:17:57;;;;;;;13.98;9.10;;;;;;;3.94;100.00;100814.42;1751907;80;21147;-88
2021/01/24 05:20:31;;;;;;;13.03;9.63;;;;;;;3.93;100.00;100820.01;1755038;80;21143;-88
2021/01/24 05:23:01;;;;;;;17.23;10.35;;;;;;;3.93;100.00;100817.43;1755062;80;21124;-88
2021/01/24 05:25:33;;;;;;;13.43;9.50;;;;;;;3.94;100.00;100823.44;1755062;80;21426;-88
2021/01/24 05:28:21;;;;;;;11.93;9.33;;;;;;;3.90;100.00;100820.16;1754908;80;21820;-88
2021/01/24 05:31:07;;;;;;;15.30;9.25;;;;;;;3.87;100.00;100820.75;1753829;81;32753;-88
2021/01/24 05:33:46;;;;;;;15.98;9.40;;;;;;;3.83;100.00;100822.63;1753523;81;21187;-89
2021/01/24 05:36:16;;;;;;;16.05;8.80;;;;;;;3.81;100.00;100823.56;1753379;80;21599;-88
2021/01/24 05:38:44;;;;;;;12.65;9.23;;;;;;;3.76;100.00;100814.31;1753440;80;21139;-88
2021/01/24 05:41:13;;;;;;;11.78;8.68;;;;;;;3.76;100.00;100818.18;1753366;81;21139;-88
2021/01/24 05:43:45;;;;;;;15.08;8.70;;;;;;;3.74;100.00;100815.29;1753462;80;21191;-89
2021/01/24 05:46:13;;;;;;;13.05;8.70;;;;;;;3.75;100.00;100816.97;1754284;81;21120;-89
2021/01/24 05:48:50;;;;;;;22.82;15.35;;;;;;;3.75;100.00;100810.06;1755280;80;21535;-88
2021/01/24 05:51:18;;;;;;;18.60;12.05;;;;;;;3.76;100.00;100813.49;1755155;81;21366;-88
2021/01/24 05:53:49;;;;;;;14.58;9.13;;;;;;;3.75;100.00;100815.68;1755098;80;21609;-89
2021/01/24 05:56:51;;;;;;;12.45;7.72;;;;;;;3.75;100.00;100820.36;1755280;81;21079;-89
2021/01/24 05:59:18;;;;;;;;;;;;;;;3.76;100.00;100812.20;1748276;79;21179;-89
2021/01/24 06:01:50;;;;;;;10.78;7.12;;;;;;;3.78;100.00;100812.52;1738585;81;20475;-89
2021/01/24 06:04:18;;;;;;;;;;;;;;;3.81;100.00;100808.11;1747640;80;21418;-89
2021/01/24 06:06:47;;;;;;;13.93;8.70;;;;;;;3.83;100.00;100808.89;1740352;81;20352;-89
2021/01/24 06:09:15;;;;;;;15.03;8.45;;;;;;;3.85;100.00;100810.95;1725252;83;21146;-89
2021/01/24 06:11:50;;;;;;;11.48;7.95;;;;;;;3.87;100.00;100813.84;1725252;83;21178;-89
2021/01/24 06:14:18;;;;;;;15.05;9.48;;;;;;;3.88;100.00;100812.94;1744583;81;21133;-88
2021/01/24 06:16:50;;;;;;;15.90;9.13;;;;;;;3.89;100.00;100813.33;1764793;81;21330;-88
2021/01/24 06:19:47;;;;;;;17.77;9.85;;;;;;;3.90;100.00;100809.00;1764826;80;21589;-89
2021/01/24 06:22:20;;;;;;;14.20;9.18;;;;;;;3.93;100.00;100810.16;1764897;81;21062;-88
2021/01/24 06:24:53;;;;;;;15.40;8.60;;;;;;;3.98;100.00;100809.97;1745416;81;21518;-89
2021/01/24 06:27:29;;;;;;;13.70;8.15;;;;;;;4.01;100.00;100814.53;1762048;81;21553;-88
2021/01/24 06:30:02;;;;;;;15.28;7.47;;;;;;;4.04;100.00;100813.12;1764795;81;21193;-90
2021/01/24 06:32:31;;;;;;;9.98;6.10;;;;;;;4.18;100.00;100811.65;1764912;81;21207;-89
2021/01/24 06:35:19;;;;;;;11.15;6.37;;;;;;;4.32;100.00;100811.86;1764950;80;21557;-87
2021/01/24 06:38:01;;;;;;;14.60;6.75;;;;;;;4.45;100.00;100806.15;1764723;80;21149;-90
2021/01/24 06:40:32;;;;;;;12.55;6.50;;;;;;;4.52;100.00;100803.20;1764857;80;21082;-89
2021/01/24 06:43:06;;;;;;;14.33;6.80;;;;;;;4.60;100.00;100809.73;1764327;79;22273;-89
2021/01/24 06:45:37;;;;;;;10.50;6.47;;;;;;;4.65;100.00;100804.75;1744443;81;21121;-90
2021/01/24 06:48:06;;;;;;;13.50;6.62;;;;;;;4.70;100.00;100805.83;1759016;81;21063;-88
2021/01/24 06:50:41;;;;;;;12.18;5.87;;;;;;;4.73;100.00;100806.95;1742609;82;21159;-89
2021/01/24 06:53:26;;;;;;;9.85;6.00;;;;;;;4.75;100.00;100799.98;1742451;82;21606;-87
2021/01/24 06:56:01;;;;;;;11.65;6.22;;;;;;;4.78;100.00;100802.42;1742494;81;21242;-87
2021/01/24 06:58:32;;;;;;;11.20;6.10;;;;;;;4.81;100.00;100802.26;1742492;81;21199;-86
2021/01/24 07:01:20;;;;;;;;;;;;;;;4.83;100.00;100808.66;1766901;79;21164;-86
2021/01/24 07:04:09;;;;;;;12.55;6.00;;;;;;;4.84;100.00;100805.17;1795403;79;20504;-86
2021/01/24 07:06:38;;;;;;;16.48;5.53;;;;;;;4.83;100.00;100803.03;1775040;78;21150;-86
2021/01/24 07:09:31;;;;;;;14.68;5.80;;;;;;;4.83;100.00;100806.08;1790481;79;21118;-86
2021/01/24 07:12:05;;;;;;;9.98;5.17;;;;;;;4.83;100.00;100804.32;1793995;79;21201;-86
2021/01/24 07:14:41;;;;;;;9.58;5.65;;;;;;;4.84;100.00;100810.33;1796064;79;21115;-86
2021/01/24 07:17:17;;;;;;;9.80;5.37;;;;;;;4.86;100.00;100808.48;1790963;79;21597;-86
2021/01/24 07:19:51;;;;;;;10.28;4.95;;;;;;;4.89;100.00;100810.94;1805590;78;21535;-86
2021/01/24 07:22:22;;;;;;;11.95;4.92;;;;;;;4.91;100.00;100813.00;1795372;79;21356;-86
2021/01/24 07:24:54;;;;;;;7.97;4.80;;;;;;;4.92;100.00;100810.80;1796138;79;21114;-86
2021/01/24 07:27:29;;;;;;;9.50;5.30;;;;;;;4.96;100.00;100806.33;1795613;79;21122;-86
2021/01/24 07:29:59;;;;;;;11.22;5.30;;;;;;;4.99;100.00;100804.43;1793582;79;21046;-86
2021/01/24 07:32:28;;;;;;;9.95;4.70;;;;;;;5.02;100.00;100809.42;1795601;79;21172;-86
2021/01/24 07:34:57;;;;;;;9.00;5.35;;;;;;;5.05;100.00;100813.59;1792942;78;22157;-86
2021/01/24 07:37:25;;;;;;;8.90;5.45;;;;;;;5.08;100.00;100813.45;1779390;78;21852;-88
2021/01/24 07:39:53;;;;;;;9.45;4.62;;;;;;;5.17;100.00;100821.19;1764753;81;21172;-89
2021/01/24 07:46:45;;;;;;;8.50;4.87;;;;;;;5.19;100.00;100816.36;1785884;79;21138;-87
2021/01/24 07:49:14;;;;;;;8.25;4.75;;;;;;;5.23;100.00;100813.17;1775652;79;21605;-88
2021/01/24 07:51:43;;;;;;;9.80;5.08;;;;;;;5.23;100.00;100811.88;1795791;79;21148;-90
2021/01/24 07:54:19;;;;;;;9.13;5.40;;;;;;;5.25;100.00;100815.20;1766419;79;21642;-87
2021/01/24 07:56:48;;;;;;;9.03;5.33;;;;;;;5.27;100.00;100815.14;1768513;78;21197;-87
2021/01/24 07:59:20;;;;;;;10.53;4.78;;;;;;;5.27;100.00;100813.37;1767371;79;21299;-86
2021/01/24 08:01:48;;;;;;;11.00;5.20;;;;;;;5.28;100.00;100810.36;1771610;79;21321;-86
2021/01/24 08:04:23;;;;;;;10.43;6.97;;;;;;;5.29;100.00;100816.73;1767626;78;21133;-86
2021/01/24 08:06:52;;;;;;;11.80;6.67;;;;;;;5.33;100.00;100820.81;1790316;79;21130;-86
2021/01/24 08:09:21;;;;;;;12.07;6.65;;;;;;;5.34;100.00;100821.20;1737012;81;21140;-86
2021/01/24 08:11:49;;;;;;;10.78;5.87;;;;;;;5.40;100.00;100824.41;1706782;84;21135;-86
2021/01/24 08:14:17;;;;;;;11.78;5.70;;;;;;;5.40;100.00;100824.41;1705750;82;21382;-86
2021/01/24 08:16:49;;;;;;;8.98;5.35;;;;;;;5.44;100.00;100827.20;1708574;82;21187;-87
2021/01/24 08:19:22;;;;;;;9.70;5.00;;;;;;;5.47;100.00;100832.22;1679860;84;21131;-86
2021/01/24 08:21:56;;;;;;;9.85;5.10;;;;;;;5.47;100.00;100832.22;1693523;84;21164;-87
2021/01/24 08:24:28;;;;;;;7.12;4.62;;;;;;;5.49;100.00;100832.95;1699002;84;21116;-86
2021/01/24 08:26:58;;;;;;;10.43;5.35;;;;;;;5.50;100.00;100839.80;1698952;83;21449;-87
2021/01/24 08:29:34;;;;;;;9.38;5.33;;;;;;;5.51;100.00;100839.75;1679228;84;21172;-87
2021/01/24 08:31:58;;;;;;;10.70;4.65;;;;;;;5.54;100.00;100833.58;1698896;83;21192;-87
2021/01/24 08:34:33;;;;;;;9.53;5.12;;;;;;;5.57;100.00;100826.95;1700440;81;21148;-87
2021/01/24 08:37:05;;;;;;;9.50;5.30;;;;;;;5.57;100.00;100826.95;1710873;81;21227;-87
2021/01/24 08:39:34;;;;;;;8.73;4.92;;;;;;;5.60;100.00;100824.69;1713665;81;21774;-87
2021/01/24 08:42:05;;;;;;;9.33;4.72;;;;;;;5.65;100.00;100816.23;1707996;81;21199;-87
2021/01/24 08:44:33;;;;;;;8.20;4.55;;;;;;;5.65;100.00;100816.23;1699271;84;21169;-87
2021/01/24 08:47:06;;;;;;;8.10;4.58;;;;;;;5.68;100.00;100810.45;1727954;83;21631;-87
2021/01/24 08:49:35;;;;;;;10.00;4.87;;;;;;;5.73;100.00;100811.98;1722518;81;21738;-86
2021/01/24 08:52:06;;;;;;;8.08;5.03;;;;;;;5.77;100.00;100808.31;1713730;81;21361;-86
2021/01/24 08:54:37;;;;;;;8.45;4.83;;;;;;;5.81;100.00;100808.08;1720607;81;21457;-87
2021/01/24 08:57:18;;;;;;;6.87;4.45;;;;;;;5.93;100.00;100813.53;1699194;82;21128;-88
2021/01/24 08:59:54;;;;;;;5.80;4.20;;;;;;;5.93;100.00;100813.53;1699315;84;21112;-88
2021/01/24 09:02:52;;;;;;;8.63;4.28;;;;;;;5.99;100.00;100814.05;1699252;84;21168;-88
2021/01/24 09:05:32;;;;;;;10.15;5.15;;;;;;;6.08;100.00;100808.02;1703551;83;22285;-88
2021/01/24 09:08:00;;;;;;;6.42;4.60;;;;;;;6.14;100.00;100806.39;1719064;81;21172;-86
2021/01/24 09:10:33;;;;;;;6.95;4.75;;;;;;;6.19;100.00;100805.71;1701180;83;21128;-85
2021/01/24 09:13:31;;;;;;;7.67;4.45;;;;;;;6.24;100.00;100811.93;1699336;84;21147;-88
2021/01/24 09:16:03;;;;;;;7.47;4.62;;;;;;;6.27;100.00;100811.30;1676526;84;21148;-88
2021/01/24 09:18:32;;;;;;;6.20;4.42;;;;;;;6.30;100.00;100802.55;1679536;82;21363;-87
2021/01/24 09:21:06;;;;;;;7.95;4.70;;;;;;;6.33;100.00;100801.53;1738474;81;21544;-88
2021/01/24 09:27:57;;;;;;;9.18;4.87;;;;;;;6.39;100.00;100801.19;1754240;80;21564;-89
2021/01/24 09:30:25;;;;;;;6.42;4.17;;;;;;;6.41;100.00;100797.59;1763710;80;21107;-89
2021/01/24 09:32:53;;;;;;;9.18;5.17;;;;;;;6.44;100.00;100796.63;1762383;80;22146;-89
2021/01/24 09:35:25;;;;;;;8.40;4.60;;;;;;;6.46;100.00;100799.94;1755017;80;21606;-86
2021/01/24 09:37:53;;;;;;;6.40;4.35;;;;;;;6.47;100.00;100791.27;1755257;80;21634;-86
2021/01/24 09:40:51;;;;;;;11.22;4.62;;;;;;;6.51;100.00;100790.19;1755274;81;21127;-86
2021/01/24 09:43:47;;;;;;;7.95;4.10;;;;;;;6.54;100.00;100784.83;1755448;80;21155;-86
2021/01/24 09:46:22;;;;;;;8.08;4.45;;;;;;;6.57;100.00;100796.31;1755357;81;21354;-87
2021/01/24 09:53:17;;;;;;;8.03;4.60;;;;;;;6.66;100.00;100790.25;1755285;80;21123;-86
2021/01/24 10:00:10;;;;;;;6.12;3.90;;;;;;;6.80;100.00;100783.83;1725187;82;21139;-86
2021/01/24 10:06:09;;;;;;;4.65;4.00;;;;;;;6.83;100.00;100776.34;1755423;80;21106;-86
2021/01/24 10:09:12;;;;;;;8.23;4.17;;;;;;;6.81;100.00;100778.21;1755408;81;21119;-86
2021/01/24 10:23:34;;;;;;;6.95;4.12;;;;;;;6.69;100.00;100755.16;1765332;80;21170;-87
2021/01/24 10:30:26;;;;;;;11.25;4.37;;;;;;;6.62;100.00;100746.42;1781262;79;21566;-87
2021/01/24 10:37:18;;;;;;;6.72;4.10;;;;;;;6.57;100.00;100744.56;1778711;79;21145;-85
2021/01/24 10:44:09;;;;;;;5.50;4.05;;;;;;;6.54;100.00;100728.37;1764793;80;21561;-85
2021/01/24 10:51:01;;;;;;;6.80;4.08;;;;;;;6.53;100.00;100728.82;1764862;81;21200;-86
2021/01/24 11:01:45;;;;;;;8.50;4.50;;;;;;;6.56;100.00;100713.61;1764938;81;21549;-87
2021/01/24 11:08:29;;;;;;;12.65;4.30;;;;;;;6.59;100.00;100705.66;1765497;80;21133;-87
2021/01/24 11:15:22;;;;;;;8.68;3.90;;;;;;;6.65;100.00;100701.89;1764840;79;21173;-87
2021/01/24 11:17:50;;;;;;;6.03;3.87;;;;;;;6.67;100.00;100702.17;1764886;81;21109;-88
2021/01/24 11:20:20;;;;;;;11.38;4.78;;;;;;;6.70;100.00;100699.86;1764918;81;21562;-87
2021/01/24 11:26:12;;;;;;;9.13;5.35;;;;;;;6.73;100.00;100696.63;1764603;81;21369;-87
2021/01/24 11:28:45;;;;;;;5.50;4.03;;;;;;;6.75;100.00;100689.62;1764625;80;21103;-88
2021/01/24 11:32:12;;;;;;;5.45;3.87;;;;;;;6.75;100.00;100688.80;1764881;79;21582;-88
2021/01/24 11:34:59;;;;;;;6.67;4.00;;;;;;;6.76;100.00;100680.13;1743945;81;21204;-91
2021/01/24 11:45:43;;;;;;;7.90;4.03;;;;;;;6.76;100.00;100667.18;1737574;80;21193;-90
2021/01/24 11:48:15;;;;;;;7.12;4.17;;;;;;;6.73;100.00;100669.94;1715332;81;21454;-90
2021/01/24 11:51:12;;;;;;;6.22;4.15;;;;;;;6.72;100.00;100675.59;1732448;82;21148;-91
2021/01/24 11:53:42;;;;;;;6.58;4.00;;;;;;;6.71;100.00;100673.91;1703702;83;21167;-93
2021/01/24 11:56:14;;;;;;;7.30;4.35;;;;;;;6.72;100.00;100666.97;1700012;84;21195;-89
2021/01/24 11:58:42;;;;;;;5.30;3.95;;;;;;;6.73;100.00;100660.87;1700001;83;21168;-90
2021/01/24 12:05:12;;;;;;;6.70;4.58;;;;;;;6.79;100.00;100672.16;1699939;84;21211;-90
2021/01/24 12:11:16;;;;;;;6.42;4.20;;;;;;;6.84;100.00;100658.95;1787864;79;21467;-91
2021/01/24 12:13:46;;;;;;;6.92;4.67;;;;;;;6.83;100.00;100655.55;1790713;78;21635;-90
2021/01/24 12:16:14;;;;;;;6.25;4.22;;;;;;;6.83;100.00;100658.58;1788286;78;21131;-90
2021/01/24 12:19:18;;;;;;;5.72;4.12;;;;;;;6.80;100.00;100660.89;1787619;80;21118;-91
2021/01/24 12:21:46;;;;;;;4.92;4.20;;;;;;;6.78;100.00;100654.96;1779773;80;21559;-90
2021/01/24 12:24:14;;;;;;;6.20;4.17;;;;;;;6.79;100.00;100656.63;1767430;80;21323;-90
2021/01/24 12:27:12;;;;;;;6.28;4.53;;;;;;;6.79;100.00;100660.52;1748702;80;21209;-90
2021/01/24 12:29:40;;;;;;;6.30;4.97;;;;;;;6.76;100.00;100660.23;1748869;81;21101;-90
2021/01/24 12:32:11;;;;;;;5.25;4.33;;;;;;;6.76;100.00;100658.13;1729635;81;21150;-90
2021/01/24 12:34:43;;;;;;;8.60;4.28;;;;;;;6.76;100.00;100658.94;1760743;79;21099;-90
2021/01/24 12:37:13;;;;;;;6.40;4.67;;;;;;;6.76;100.00;100657.64;1764303;80;21412;-90
2021/01/24 12:39:45;;;;;;;7.10;4.87;;;;;;;6.77;100.00;100657.20;1740353;81;21157;-91
2021/01/24 12:42:21;;;;;;;7.80;4.85;;;;;;;6.78;100.00;100665.31;1720553;83;21113;-90
2021/01/24 12:48:15;;;;;;;6.65;4.20;;;;;;;6.78;100.00;100660.98;1781400;80;21120;-90
2021/01/24 12:50:46;;;;;;;4.95;3.70;;;;;;;6.76;100.00;100655.53;1781366;80;21139;-90
2021/01/24 12:53:45;;;;;;;4.28;3.47;;;;;;;6.73;100.00;100659.58;1781388;79;21520;-90
2021/01/24 12:59:44;;;;;;;7.47;3.75;;;;;;;6.63;100.00;100667.87;1751180;80;21099;-91
2021/01/24 13:02:14;;;;;;;6.03;3.52;;;;;;;6.59;100.00;100661.22;1747723;80;21123;-91
2021/01/24 13:04:43;;;;;;;4.20;3.25;;;;;;;6.57;100.00;100662.24;1757151;80;22115;-91
2021/01/24 13:07:16;;;;;;;4.62;3.45;;;;;;;6.53;100.00;100657.67;1755400;81;21116;-91
2021/01/24 13:10:19;;;;;;;6.83;4.35;;;;;;;6.51;100.00;100662.12;1755291;81;21139;-91
2021/01/24 13:12:47;;;;;;;7.55;5.00;;;;;;;6.50;100.00;100657.02;1755439;81;21143;-90
2021/01/24 13:15:19;;;;;;;9.65;4.60;;;;;;;6.47;100.00;100651.56;1769880;79;21060;-91
2021/01/24 13:17:48;;;;;;;4.83;4.00;;;;;;;6.47;100.00;100654.16;1814440;79;21353;-91
2021/01/24 13:23:53;;;;;;;3.50;2.90;;;;;;;6.41;100.00;100646.75;1763263;78;21148;-91